Etusivu
METAR-TAF:

METAR-TAF

Lentoasemat :

Essaouira-Mogadorin lentoasema

Essaouira, Marokko

Leveyspiiri: 31-31N, Pituuspiiri: 009-47W, korkeus merenpinnasta: 15 m

Tämänhetkinen sää

Tämä raportti tehtiin 54 minuuttia sitten, kello 10.00 UTC
Tuuli 6 kn koillisesta
Lämpötila 20°C
Kosteus 49%
Ilmanpaine 1018 hPa
Näkyvyys: 7000 m

METAR: GMMI 291000Z 04006KT 7000 NSC 20/09 Q1018 NOSIG

Aika: 11:54 (10:54 UTC)

Sääennuste

Tämä raportti tehtiin 5 tuntia ja 54 minuuttia sitten, kello 05.00 UTC
Ennuste voimassa 29. päivästä klo 06 UTC - 30. päivään klo 12 UTC
Tuuli 13 kn pohjoisesta/koillisesta
Näkyvyys: 8000 m
Hajanaisia pilviä 4000 ft:n korkeudessa

TAF: GMMI 290500Z 2906/3012 03013KT 8000 SCT040

Säähavainnot ja -ennusteet yli 4000 lentoasemalta (METAR- ja TAF-raportit).

Käytössä olevat sääasemat on merkitty karttaan keltaisilla ja punaisilla pisteillä.

Aseta hiiri pisteen päälle nähdäksesi sääaseman nimen.

Klikkaa sitten nähdäksesi säähavainnot ja -ennusteet.

Kartan vaihtaminen: klikkaa mustalla rastilla varustettuja vihreitä pisteitä, niin voit zoomata sisään; viivalla varustettua vihreää pistettä, niin voit zoomata ulos tai vihreitä nuolia, niin pääset viereisille kartoille.


METAR-TAF: